Aeroclub de GuadalajaraInformación meteorológica

Información de METAR

 

LEMD - Madrid / Barajas
Distancia desde la estación: SO 49km
Actualización: 16/11/2018 11:00
Parcialmente nuboso
Parcialmente nuboso
 Viento del calm
Viento: Calma
Temperatura: 13°C
Rocío: 12°C
Humedad: 94%
Barómetro: 1020 hPa
Nubes: Parcialmente nuboso
Visibilidad: 10 km
Detalle de Nubes: Poco nuboso 1158 m
Parcialmente nuboso 1402 m
2018/11/16 10:00 LEMD 161000Z 00000KT 9999 FEW038 SCT046 13/12 Q1020 NOSIG
LECV - Madrid / Colmenar Viejo
Distancia desde la estación: OSO 47km
Actualización: 16/11/2018 11:04
Rain showers, Muy nuboso
Rain showers, Muy nuboso
 Viento del ESE
Viento: ESE 9 km/h
Temperatura: 11°C
Rocío: 10°C
Humedad: 94%
Barómetro: 1021 hPa
Resumen: Rain Showers
Nubes: Muy nuboso
Visibilidad: 10 km
Detalle de Nubes: Poco nuboso 305 m
Muy nuboso 427 m
2018/11/16 10:04 LECV 161004Z 12005KT 9999 4500NW SHRA FEW010TCU BKN014 11/10 Q1021
LETO - Madrid / Torrejon
Distancia desde la estación: SSO 45km
Actualización: 16/11/2018 11:00
Parcialmente nuboso
Parcialmente nuboso
 Viento del ENE
Viento: ENE 6 km/h
Temperatura: 13°C
Rocío: 12°C
Humedad: 94%
Barómetro: 1020 hPa
Nubes: Parcialmente nuboso
Visibilidad: 10 km
Detalle de Nubes: Parcialmente nuboso 1372 m
Parcialmente nuboso 1981 m
2018/11/16 10:00 LETO 161000Z 06003KT 030V100 9999 SCT045 SCT065 13/12 Q1020 NOSIG
 
LEVS - Madrid / Cuatro vientos
Distancia desde la estación: SO 70km
Actualización: 16/11/2018 11:00
Muy nuboso
Muy nuboso
 Viento del E
Viento: E 7 km/h
Temperatura: 14°C
Rocío: 10°C
Humedad: 77%
Barómetro: 1020 hPa
Nubes: Muy nuboso
Visibilidad: 10 km
Detalle de Nubes: Muy nuboso 671 m
2018/11/16 10:00 LEVS 161000Z 08004KT 010V140 9999 BKN022 14/10 Q1020
LEGT - Madrid / Getafe
Distancia desde la estación: SSO 74km
Actualización: 16/11/2018 11:00
Parcialmente nuboso
Parcialmente nuboso
 Viento del E
Viento: E 7 km/h
Temperatura: 14°C
Rocío: 11°C
Humedad: 82%
Barómetro: 1020 hPa
Nubes: Parcialmente nuboso
Visibilidad: 10 km
Detalle de Nubes: Poco nuboso 610 m
Parcialmente nuboso 1372 m
2018/11/16 10:00 LEGT 161000Z 08004KT 050V110 9999 FEW020 SCT045 14/11 Q1020
LEBL - Barcelona / Aeropuerto
Distancia desde la estación: E 447km
Actualización: 16/11/2018 11:00
Muy nuboso
Muy nuboso
 Viento del NNO
Viento: NNO 13 km/h
Temperatura: 16°C
Rocío: 13°C
Humedad: 83%
Barómetro: 1022 hPa
Nubes: Muy nuboso
Visibilidad: 10 km
Detalle de Nubes: Poco nuboso 427 m
Muy nuboso 914 m
2018/11/16 10:00 LEBL 161000Z 34007KT 9999 FEW014 BKN030 16/13 Q1022 NOSIG
 
LEVC - Valencia /Aeropuerto
Distancia desde la estación: ESE 280km
Actualización: 16/11/2018 11:00
Muy nuboso
Muy nuboso
 Viento del NO
Viento: NO 9 km/h
Temperatura: 16°C
Rocío: 15°C
Humedad: 94%
Barómetro: 1021 hPa
Nubes: Muy nuboso
Visibilidad: 10 km
Detalle de Nubes: Parcialmente nuboso 396 m
Poco nuboso 610 m
Muy nuboso 914 m
2018/11/16 10:00 LEVC 161000Z 31005KT 9999 SCT013 FEW020TCU BKN030 16/15 Q1021 TEMPO 4000 TSRA FEW024CB
LEZG - Zaragoza / Aeropuerto
Distancia desde la estación: ENE 206km
Actualización: 16/11/2018 11:00
Mist, Muy nuboso
Mist, Muy nuboso
 Viento del E
Viento: E 7 km/h
Temperatura: 15°C
Rocío: 12°C
Humedad: 82%
Barómetro: 1022 hPa
Resumen: Mist
Nubes: Muy nuboso
Visibilidad: 5 km
Detalle de Nubes: Muy nuboso 610 m
2018/11/16 10:00 LEZG 161000Z 09004KT 050V130 5000 BR BKN020 15/12 Q1022
LEGR - Granada / Aeropuerto
Distancia desde la estación: S 411km
Actualización: 16/11/2018 11:00
Poco nuboso
Poco nuboso
 Viento del calm
Viento: Calma
Temperatura: 14°C
Rocío: 10°C
Humedad: 77%
Barómetro: 1018 hPa
Nubes: Poco nuboso
Visibilidad: 10 km
Detalle de Nubes: Poco nuboso 1219 m
2018/11/16 10:00 LEGR 161000Z 00000KT 9999 FEW040 14/10 Q1018